Time,TemperatureF,DewpointF,PressureIn,WindDirection,WindDirectionDegrees,WindSpeedMPH,WindSpeedGustMPH,Humidity,HourlyPrecipIn,Conditions,Clouds,dailyrainin,SolarRadiationWatts/m^2,SoftwareType,DateUTC
2013-01-26 00:13:00,50.4,49.0,30.13,North,351,2.0,6.0,95,0.00,,,0.00,0,weatherlink.com 1.10,2013-01-26 08:13:00,
2013-01-26 00:28:00,50.5,49.0,30.13,NNE,29,5.0,7.0,95,0.00,,,0.00,0,weatherlink.com 1.10,2013-01-26 08:28:00,
2013-01-26 00:43:00,50.6,49.0,30.12,North,5,2.0,5.0,95,0.00,,,0.00,0,weatherlink.com 1.10,2013-01-26 08:43:00,
2013-01-26 00:58:00,50.6,49.0,30.12,North,5,0.0,1.0,95,0.00,,,0.00,0,weatherlink.com 1.10,2013-01-26 08:58:00,
2013-01-26 01:13:00,50.8,50.0,30.11,North,5,0.0,2.0,95,0.00,,,0.00,0,weatherlink.com 1.10,2013-01-26 09:13:00,
2013-01-26 01:28:00,51.0,50.0,30.11,North,5,0.0,0.0,95,0.00,,,0.00,0,weatherlink.com 1.10,2013-01-26 09:28:00,
2013-01-26 01:43:00,51.1,50.0,30.11,North,5,0.0,1.0,95,0.00,,,0.00,0,weatherlink.com 1.10,2013-01-26 09:43:00,
2013-01-26 01:58:00,51.4,50.0,30.10,North,5,0.0,3.0,95,0.00,,,0.00,0,weatherlink.com 1.10,2013-01-26 09:58:00,
2013-01-26 02:13:00,51.5,50.0,30.10,North,5,0.0,3.0,95,0.00,,,0.00,0,weatherlink.com 1.10,2013-01-26 10:13:00,
2013-01-26 02:28:00,51.8,51.0,30.10,North,350,2.0,5.0,95,0.00,,,0.00,0,weatherlink.com 1.10,2013-01-26 10:28:00,
2013-01-26 02:43:00,51.8,51.0,30.10,North,355,2.0,6.0,95,0.00,,,0.00,0,weatherlink.com 1.10,2013-01-26 10:43:00,
2013-01-26 02:58:00,51.6,50.0,30.09,North,355,3.0,4.0,95,0.00,,,0.00,0,weatherlink.com 1.10,2013-01-26 10:58:00,
2013-01-26 03:13:00,51.5,50.0,30.09,NNW,338,4.0,8.0,95,0.00,,,0.00,0,weatherlink.com 1.10,2013-01-26 11:13:00,
2013-01-26 03:28:00,51.3,50.0,30.09,NNE,19,5.0,11.0,95,0.00,,,0.00,0,weatherlink.com 1.10,2013-01-26 11:28:00,
2013-01-26 03:43:00,50.9,50.0,30.09,North,351,5.0,9.0,95,0.00,,,0.00,0,weatherlink.com 1.10,2013-01-26 11:43:00,
2013-01-26 03:58:00,50.4,49.0,30.08,North,351,0.0,6.0,95,0.00,,,0.00,0,weatherlink.com 1.10,2013-01-26 11:58:00,
2013-01-26 04:13:00,49.7,48.0,30.08,North,9,3.0,9.0,95,0.00,,,0.00,0,weatherlink.com 1.10,2013-01-26 12:13:00,
2013-01-26 04:28:00,49.4,48.0,30.08,NNW,344,2.0,9.0,95,0.00,,,0.00,0,weatherlink.com 1.10,2013-01-26 12:28:00,
2013-01-26 04:43:00,49.1,48.0,30.08,North,351,1.0,10.0,95,0.00,,,0.00,0,weatherlink.com 1.10,2013-01-26 12:43:00,
2013-01-26 04:58:00,48.5,47.0,30.08,North,360,4.0,9.0,95,0.00,,,0.00,0,weatherlink.com 1.10,2013-01-26 12:58:00,
2013-01-26 05:13:00,48.0,46.0,30.08,NNW,348,3.0,9.0,94,0.00,,,0.00,0,weatherlink.com 1.10,2013-01-26 13:13:00,
2013-01-26 05:28:00,47.6,46.0,30.08,North,5,2.0,6.0,95,0.00,,,0.00,0,weatherlink.com 1.10,2013-01-26 13:28:00,
2013-01-26 05:43:00,47.2,46.0,30.09,North,5,3.0,8.0,94,0.00,,,0.00,0,weatherlink.com 1.10,2013-01-26 13:43:00,
2013-01-26 05:58:00,46.7,45.0,30.09,North,5,3.0,7.0,94,0.00,,,0.00,0,weatherlink.com 1.10,2013-01-26 13:58:00,
2013-01-26 06:13:00,45.9,44.0,30.09,North,5,1.0,5.0,94,0.00,,,0.00,0,weatherlink.com 1.10,2013-01-26 14:13:00,
2013-01-26 06:29:00,45.0,43.0,30.09,North,5,3.0,5.0,93,0.00,,,0.00,0,weatherlink.com 1.10,2013-01-26 14:29:00,
2013-01-26 06:44:00,44.6,43.0,30.09,North,5,2.0,6.0,93,0.00,,,0.00,0,weatherlink.com 1.10,2013-01-26 14:44:00,
2013-01-26 06:59:00,44.2,42.0,30.10,North,5,2.0,7.0,92,0.00,,,0.00,0,weatherlink.com 1.10,2013-01-26 14:59:00,
2013-01-26 07:14:00,44.2,42.0,30.10,North,5,2.0,7.0,91,0.01,,,0.01,0,weatherlink.com 1.10,2013-01-26 15:14:00,
2013-01-26 07:29:00,43.3,41.0,30.10,North,5,1.0,2.0,91,0.01,,,0.01,9,weatherlink.com 1.10,2013-01-26 15:29:00,
2013-01-26 07:44:00,42.8,40.0,30.10,North,5,0.0,4.0,91,0.01,,,0.01,30,weatherlink.com 1.10,2013-01-26 15:44:00,
2013-01-26 07:59:00,43.1,41.0,30.10,North,5,1.0,2.0,91,0.01,,,0.01,67,weatherlink.com 1.10,2013-01-26 15:59:00,
2013-01-26 08:14:00,43.6,42.0,30.10,North,5,0.0,1.0,92,0.00,,,0.01,107,weatherlink.com 1.10,2013-01-26 16:14:00,
2013-01-26 08:29:00,45.0,43.0,30.10,North,5,1.0,2.0,92,0.00,,,0.01,160,weatherlink.com 1.10,2013-01-26 16:29:00,
2013-01-26 08:44:00,47.2,45.0,30.10,North,5,0.0,1.0,92,0.00,,,0.01,207,weatherlink.com 1.10,2013-01-26 16:44:00,
2013-01-26 08:59:00,48.2,46.0,30.10,North,5,2.0,4.0,90,0.00,,,0.01,262,weatherlink.com 1.10,2013-01-26 16:59:00,
2013-01-26 09:14:00,49.7,46.0,30.10,North,5,3.0,4.0,86,0.00,,,0.01,304,weatherlink.com 1.10,2013-01-26 17:14:00,
2013-01-26 09:29:00,51.5,46.0,30.10,North,9,5.0,10.0,80,0.00,,,0.01,346,weatherlink.com 1.10,2013-01-26 17:29:00,
2013-01-26 09:44:00,52.4,45.0,30.10,North,360,2.0,14.0,75,0.00,,,0.01,383,weatherlink.com 1.10,2013-01-26 17:44:00,
2013-01-26 09:59:00,53.4,45.0,30.11,NW,315,5.0,8.0,74,0.00,,,0.01,415,weatherlink.com 1.10,2013-01-26 17:59:00,
2013-01-26 10:14:00,53.8,46.0,30.11,NW,324,4.0,10.0,75,0.00,,,0.01,446,weatherlink.com 1.10,2013-01-26 18:14:00,
2013-01-26 10:29:00,53.9,47.0,30.11,WNW,296,4.0,13.0,76,0.00,,,0.01,473,weatherlink.com 1.10,2013-01-26 18:29:00,
2013-01-26 10:45:00,54.1,46.0,30.11,NW,309,4.0,12.0,74,0.00,,,0.01,504,weatherlink.com 1.10,2013-01-26 18:45:00,
2013-01-26 11:00:00,54.1,46.0,30.10,NW,310,6.0,14.0,74,0.00,,,0.01,577,weatherlink.com 1.10,2013-01-26 19:00:00,
2013-01-26 11:15:00,54.2,46.0,30.10,West,267,15.0,17.0,74,0.00,,,0.01,571,weatherlink.com 1.10,2013-01-26 19:15:00,
2013-01-26 11:30:00,54.3,47.0,30.10,NW,321,4.0,16.0,75,0.00,,,0.01,615,weatherlink.com 1.10,2013-01-26 19:30:00,
2013-01-26 11:45:00,54.8,45.0,30.09,NW,321,12.0,17.0,70,0.00,,,0.01,752,weatherlink.com 1.10,2013-01-26 19:45:00,
2013-01-26 12:00:00,54.3,46.0,30.09,NNW,333,7.0,19.0,73,0.00,,,0.01,589,weatherlink.com 1.10,2013-01-26 20:00:00,
2013-01-26 12:15:00,54.6,45.0,30.08,WNW,300,12.0,18.0,70,0.00,,,0.01,582,weatherlink.com 1.10,2013-01-26 20:15:00,
2013-01-26 12:30:00,54.5,45.0,30.08,NNW,327,6.0,22.0,70,0.00,,,0.01,582,weatherlink.com 1.10,2013-01-26 20:30:00,
2013-01-26 12:45:00,54.8,46.0,30.08,NW,323,8.0,17.0,71,0.00,,,0.01,589,weatherlink.com 1.10,2013-01-26 20:45:00,
2013-01-26 13:00:00,54.4,44.0,30.07,NW,304,10.0,22.0,67,0.00,,,0.01,571,weatherlink.com 1.10,2013-01-26 21:00:00,
2013-01-26 13:15:00,54.6,44.0,30.07,WNW,300,14.0,17.0,67,0.00,,,0.01,555,weatherlink.com 1.10,2013-01-26 21:15:00,
2013-01-26 13:30:00,54.8,42.0,30.07,NW,316,4.0,19.0,62,0.00,,,0.01,545,weatherlink.com 1.10,2013-01-26 21:30:00,
2013-01-26 13:45:00,54.6,43.0,30.07,NNW,338,12.0,16.0,65,0.00,,,0.01,513,weatherlink.com 1.10,2013-01-26 21:45:00,
2013-01-26 14:00:00,54.5,41.0,30.07,NW,317,10.0,18.0,60,0.00,,,0.01,499,weatherlink.com 1.10,2013-01-26 22:00:00,
2013-01-26 14:15:00,54.4,44.0,30.07,North,5,7.0,16.0,68,0.00,,,0.01,469,weatherlink.com 1.10,2013-01-26 22:15:00,
2013-01-26 14:30:00,53.9,41.0,30.07,NW,309,4.0,20.0,63,0.00,,,0.01,457,weatherlink.com 1.10,2013-01-26 22:30:00,
2013-01-26 14:45:00,54.4,42.0,30.07,NW,308,9.0,14.0,64,0.00,,,0.01,411,weatherlink.com 1.10,2013-01-26 22:45:00,
2013-01-26 15:00:00,54.1,42.0,30.07,NNW,348,10.0,18.0,63,0.00,,,0.01,401,weatherlink.com 1.10,2013-01-26 23:00:00,
2013-01-26 15:15:00,53.9,42.0,30.08,NW,311,8.0,19.0,64,0.00,,,0.01,352,weatherlink.com 1.10,2013-01-26 23:15:00,
2013-01-26 15:30:00,53.3,42.0,30.08,North,355,9.0,15.0,65,0.00,,,0.01,297,weatherlink.com 1.10,2013-01-26 23:30:00,
2013-01-26 15:45:00,52.9,40.0,30.08,NW,316,4.0,17.0,62,0.00,,,0.01,248,weatherlink.com 1.10,2013-01-26 23:45:00,
2013-01-26 16:00:00,52.5,43.0,30.07,NW,315,5.0,15.0,71,0.00,,,0.01,209,weatherlink.com 1.10,2013-01-27 00:00:00,
2013-01-26 16:15:00,51.7,43.0,30.08,NNW,346,4.0,13.0,73,0.00,,,0.01,165,weatherlink.com 1.10,2013-01-27 00:15:00,
2013-01-26 16:30:00,51.3,42.0,30.07,NNW,338,9.0,16.0,70,0.00,,,0.01,114,weatherlink.com 1.10,2013-01-27 00:30:00,
2013-01-26 16:45:00,51.1,42.0,30.08,NW,318,8.0,12.0,72,0.00,,,0.01,69,weatherlink.com 1.10,2013-01-27 00:45:00,
2013-01-26 17:00:00,50.5,42.0,30.08,NW,326,9.0,12.0,72,0.00,,,0.01,26,weatherlink.com 1.10,2013-01-27 01:00:00,
2013-01-26 17:15:00,49.9,42.0,30.09,NW,315,3.0,11.0,75,0.00,,,0.01,16,weatherlink.com 1.10,2013-01-27 01:15:00,
2013-01-26 17:30:00,49.4,42.0,30.09,NNE,15,5.0,16.0,77,0.00,,,0.01,5,weatherlink.com 1.10,2013-01-27 01:30:00,
2013-01-26 17:45:00,48.8,42.0,30.10,NNW,345,3.0,9.0,78,0.00,,,0.01,0,weatherlink.com 1.10,2013-01-27 01:45:00,
2013-01-26 18:00:00,48.1,42.0,30.10,North,5,3.0,6.0,78,0.00,,,0.01,0,weatherlink.com 1.10,2013-01-27 02:00:00,
2013-01-26 18:15:00,47.8,42.0,30.11,North,355,4.0,8.0,79,0.00,,,0.01,0,weatherlink.com 1.10,2013-01-27 02:15:00,
2013-01-26 18:30:00,47.7,42.0,30.11,North,355,3.0,8.0,80,0.00,,,0.01,0,weatherlink.com 1.10,2013-01-27 02:30:00,
2013-01-26 18:45:00,47.4,42.0,30.11,North,5,1.0,6.0,80,0.00,,,0.01,0,weatherlink.com 1.10,2013-01-27 02:45:00,
2013-01-26 19:00:00,47.2,41.0,30.12,NNE,13,1.0,8.0,80,0.00,,,0.01,0,weatherlink.com 1.10,2013-01-27 03:00:00,
2013-01-26 19:15:00,47.2,42.0,30.12,North,355,1.0,6.0,81,0.00,,,0.01,0,weatherlink.com 1.10,2013-01-27 03:15:00,
2013-01-26 19:30:00,47.2,42.0,30.12,North,355,3.0,6.0,82,0.00,,,0.01,0,weatherlink.com 1.10,2013-01-27 03:30:00,
2013-01-26 19:45:00,47.0,42.0,30.13,North,360,2.0,5.0,83,0.00,,,0.01,0,weatherlink.com 1.10,2013-01-27 03:45:00,
2013-01-26 20:00:00,46.8,42.0,30.13,North,360,3.0,3.0,84,0.00,,,0.01,0,weatherlink.com 1.10,2013-01-27 04:00:00,
2013-01-26 20:15:00,47.5,42.0,30.13,North,10,4.0,14.0,81,0.00,,,0.01,0,weatherlink.com 1.10,2013-01-27 04:15:00,
2013-01-26 20:30:00,47.6,42.0,30.13,North,5,3.0,8.0,80,0.00,,,0.01,0,weatherlink.com 1.10,2013-01-27 04:30:00,
2013-01-26 20:45:00,47.4,42.0,30.13,North,360,1.0,6.0,81,0.00,,,0.01,0,weatherlink.com 1.10,2013-01-27 04:45:00,
2013-01-26 21:01:00,46.9,42.0,30.13,North,355,4.0,10.0,82,0.00,,,0.01,0,weatherlink.com 1.10,2013-01-27 05:01:00,
2013-01-26 21:15:00,46.5,43.0,30.14,North,5,2.0,11.0,86,0.00,,,0.01,0,weatherlink.com 1.10,2013-01-27 05:15:00,
2013-01-26 21:30:00,45.9,43.0,30.14,North,5,1.0,4.0,88,0.00,,,0.01,0,weatherlink.com 1.10,2013-01-27 05:30:00,
2013-01-26 21:45:00,45.1,42.0,30.14,North,5,3.0,5.0,88,0.01,,,0.02,0,weatherlink.com 1.10,2013-01-27 05:45:00,
2013-01-26 22:00:00,44.7,42.0,30.14,North,5,2.0,4.0,90,0.01,,,0.02,0,weatherlink.com 1.10,2013-01-27 06:00:00,
2013-01-26 22:15:00,45.1,42.0,30.14,NNE,13,2.0,7.0,89,0.01,,,0.02,0,weatherlink.com 1.10,2013-01-27 06:15:00,
2013-01-26 22:31:00,44.7,42.0,30.15,NNE,13,1.0,5.0,89,0.00,,,0.02,0,weatherlink.com 1.10,2013-01-27 06:31:00,
2013-01-26 22:45:00,44.6,42.0,30.15,NNW,345,3.0,6.0,89,0.00,,,0.02,0,weatherlink.com 1.10,2013-01-27 06:45:00,
2013-01-26 23:01:00,45.1,42.0,30.15,NNW,330,3.0,8.0,89,0.00,,,0.02,0,weatherlink.com 1.10,2013-01-27 07:01:00,
2013-01-26 23:16:00,45.1,42.0,30.15,North,355,3.0,7.0,88,0.00,,,0.02,0,weatherlink.com 1.10,2013-01-27 07:16:00,
2013-01-26 23:31:00,44.8,42.0,30.14,North,355,1.0,4.0,88,0.00,,,0.02,0,weatherlink.com 1.10,2013-01-27 07:31:00,
2013-01-26 23:46:00,44.8,42.0,30.15,North,5,3.0,7.0,88,0.00,,,0.02,0,weatherlink.com 1.10,2013-01-27 07:46:00,